createdAt,value
2023-03-16T00:00:14.182Z,100505.84
2023-03-16T00:02:43.185Z,100514.50
2023-03-16T00:05:13.544Z,100514.50
2023-03-16T00:07:43.050Z,100521.91
2023-03-16T00:10:13.743Z,100521.28
2023-03-16T00:12:43.707Z,100520.47
2023-03-16T00:15:14.178Z,100522.44
2023-03-16T00:17:42.629Z,100525.06
2023-03-16T00:20:13.473Z,100525.06
2023-03-16T00:22:42.985Z,100516.59
2023-03-16T00:25:14.372Z,100525.41
2023-03-16T00:27:42.863Z,100522.97
2023-03-16T00:30:14.307Z,100521.16
2023-03-16T00:32:42.835Z,100524.13
2023-03-16T00:35:11.308Z,100520.72
2023-03-16T00:37:39.972Z,100510.56
2023-03-16T00:40:12.140Z,100515.00
2023-03-16T00:42:40.572Z,100501.09
2023-03-16T00:45:11.907Z,100503.06
2023-03-16T00:47:42.257Z,100510.44
2023-03-16T00:50:11.894Z,100499.97
2023-03-16T00:52:40.276Z,100488.03
2023-03-16T00:55:09.530Z,100491.81
2023-03-16T00:57:37.947Z,100492.81
2023-03-16T01:00:12.976Z,100492.97
2023-03-16T01:02:45.278Z,100493.78
2023-03-16T01:05:14.526Z,100482.84
2023-03-16T01:07:45.150Z,100490.56
2023-03-16T01:10:14.563Z,100491.56
2023-03-16T01:12:45.584Z,100493.31
2023-03-16T01:15:15.704Z,100485.84
2023-03-16T01:17:45.429Z,100479.13
2023-03-16T01:20:19.340Z,100475.25
2023-03-16T01:22:47.723Z,100472.97
2023-03-16T01:25:16.402Z,100464.78
2023-03-16T01:27:44.757Z,100472.22
2023-03-16T01:30:14.280Z,100473.53
2023-03-16T01:32:44.542Z,100480.75
2023-03-16T01:35:35.295Z,100469.63
2023-03-16T01:38:04.584Z,100477.66
2023-03-16T01:40:33.097Z,100479.63
2023-03-16T01:43:05.490Z,100483.06
2023-03-16T01:46:22.851Z,100471.50
2023-03-16T01:49:05.656Z,100481.31
2023-03-16T01:51:43.708Z,100471.03
2023-03-16T01:54:23.108Z,100465.13
2023-03-16T01:56:59.766Z,100460.69
2023-03-16T01:59:32.632Z,100453.84
2023-03-16T02:02:01.821Z,100451.88
2023-03-16T02:04:49.888Z,100442.38
2023-03-16T02:07:24.826Z,100446.63
2023-03-16T02:09:58.574Z,100440.59
2023-03-16T02:12:27.695Z,100431.91
2023-03-16T02:14:57.672Z,100444.19
2023-03-16T02:17:31.002Z,100438.13
2023-03-16T02:20:19.488Z,100441.75
2023-03-16T02:22:54.125Z,100436.66
2023-03-16T02:25:26.917Z,100436.84
2023-03-16T02:28:02.402Z,100429.00
2023-03-16T02:30:33.662Z,100425.56
2023-03-16T02:33:06.157Z,100426.38
2023-03-16T02:35:35.193Z,100429.81
2023-03-16T02:38:05.119Z,100429.00
2023-03-16T02:40:39.776Z,100424.75
2023-03-16T02:43:16.404Z,100425.72
2023-03-16T02:45:54.630Z,100427.38
2023-03-16T02:48:32.778Z,100422.13
2023-03-16T02:51:01.193Z,100394.50
2023-03-16T02:53:29.578Z,100396.91
2023-03-16T02:55:59.708Z,100410.19
2023-03-16T02:58:28.154Z,100417.88
2023-03-16T03:00:57.975Z,100414.63
2023-03-16T03:03:26.353Z,100403.50
2023-03-16T03:05:54.749Z,100398.25
2023-03-16T03:08:23.589Z,100386.16
2023-03-16T03:10:52.754Z,100399.25
2023-03-16T03:13:21.184Z,100388.78
2023-03-16T03:15:49.653Z,100389.78
2023-03-16T03:18:19.438Z,100368.03
2023-03-16T03:20:47.855Z,100369.84
2023-03-16T03:23:17.097Z,100378.66
2023-03-16T03:25:45.467Z,100379.84
2023-03-16T03:28:14.577Z,100384.22
2023-03-16T03:30:43.226Z,100388.03
2023-03-16T03:33:11.598Z,100376.75
2023-03-16T03:35:42.256Z,100379.06
2023-03-16T03:38:11.639Z,100369.59
2023-03-16T03:40:44.614Z,100381.88
2023-03-16T03:43:14.294Z,100383.81
2023-03-16T03:45:45.317Z,100378.78
2023-03-16T03:48:14.319Z,100368.66
2023-03-16T03:50:44.029Z,100366.19
2023-03-16T03:53:39.443Z,100356.91
2023-03-16T03:56:25.735Z,100361.31
2023-03-16T03:58:54.089Z,100356.09
2023-03-16T04:01:36.036Z,100364.75
2023-03-16T04:04:04.533Z,100344.16
2023-03-16T04:06:34.302Z,100356.09
2023-03-16T04:09:02.904Z,100355.25
2023-03-16T04:11:31.633Z,100349.19
2023-03-16T04:14:00.311Z,100366.72
2023-03-16T04:16:28.725Z,100352.00
2023-03-16T04:18:58.870Z,100354.63
2023-03-16T04:21:27.255Z,100362.00
2023-03-16T04:23:57.280Z,100359.56
2023-03-16T04:26:34.552Z,100365.97
2023-03-16T04:29:05.117Z,100370.38
2023-03-16T04:31:35.200Z,100366.13
2023-03-16T04:34:04.121Z,100363.69
2023-03-16T04:36:34.244Z,100364.03
2023-03-16T04:39:05.778Z,100356.34
2023-03-16T04:41:34.695Z,100363.41
2023-03-16T04:44:13.702Z,100350.81
2023-03-16T04:46:42.196Z,100351.63
2023-03-16T04:49:12.270Z,100357.03
2023-03-16T04:51:44.009Z,100345.91
2023-03-16T04:54:17.594Z,100342.66
2023-03-16T04:56:45.954Z,100351.50
2023-03-16T04:59:25.207Z,100337.78
2023-03-16T05:02:01.823Z,100340.56
2023-03-16T05:04:30.403Z,100344.97
2023-03-16T05:06:59.096Z,100341.53
2023-03-16T05:09:33.799Z,100336.31
2023-03-16T05:12:02.136Z,100340.56
2023-03-16T05:14:32.181Z,100334.34
2023-03-16T05:17:14.791Z,100330.91
2023-03-16T05:19:44.222Z,100326.50
2023-03-16T05:22:13.428Z,100330.91
2023-03-16T05:24:55.498Z,100336.16
2023-03-16T05:27:25.955Z,100336.16
2023-03-16T05:29:54.739Z,100338.78
2023-03-16T05:32:34.481Z,100336.31
2023-03-16T05:35:07.131Z,100331.25
2023-03-16T05:37:38.196Z,100340.72
2023-03-16T05:40:14.398Z,100335.50
2023-03-16T05:42:43.345Z,100325.69
2023-03-16T05:45:12.745Z,100323.06
2023-03-16T05:47:59.726Z,100323.88
2023-03-16T05:50:30.206Z,100321.28
2023-03-16T05:52:59.054Z,100306.38
2023-03-16T05:55:29.416Z,100303.78
2023-03-16T05:58:03.815Z,100302.31
2023-03-16T06:00:35.346Z,100303.97
2023-03-16T06:03:16.939Z,100296.25
2023-03-16T06:05:45.577Z,100297.06
2023-03-16T06:08:15.242Z,100308.34
2023-03-16T06:10:49.502Z,100294.66
2023-03-16T06:13:19.718Z,100293.66
2023-03-16T06:15:48.162Z,100281.38
2023-03-16T06:18:16.641Z,100286.47
2023-03-16T06:20:47.365Z,100283.84
2023-03-16T06:23:16.504Z,100288.06
2023-03-16T06:25:49.129Z,100295.75
2023-03-16T06:28:22.214Z,100289.53
2023-03-16T06:30:51.879Z,100293.13
2023-03-16T06:33:20.196Z,100295.59
2023-03-16T06:35:51.322Z,100297.38
2023-03-16T06:38:29.393Z,100302.44
2023-03-16T06:41:05.389Z,100294.78
2023-03-16T06:43:36.207Z,100306.03
2023-03-16T06:46:05.169Z,100305.06
2023-03-16T06:48:33.784Z,100298.66
2023-03-16T06:51:02.406Z,100306.34
2023-03-16T06:53:33.935Z,100299.13
2023-03-16T06:56:04.619Z,100311.88
2023-03-16T06:58:37.068Z,100306.31
2023-03-16T07:01:06.864Z,100315.59
2023-03-16T07:03:35.428Z,100317.69
2023-03-16T07:06:10.066Z,100306.88
2023-03-16T07:08:38.876Z,100303.91
2023-03-16T07:11:09.123Z,100309.59
2023-03-16T07:13:37.657Z,100318.72
2023-03-16T07:16:07.783Z,100314.78
2023-03-16T07:18:38.004Z,100316.56
2023-03-16T07:21:08.829Z,100323.41
2023-03-16T07:23:37.262Z,100315.19
2023-03-16T07:26:09.205Z,100313.84
2023-03-16T07:28:42.297Z,100318.56
2023-03-16T07:31:12.969Z,100318.22
2023-03-16T07:33:43.123Z,100321.28
2023-03-16T07:36:15.816Z,100315.69
2023-03-16T07:38:51.490Z,100315.81
2023-03-16T07:41:21.663Z,100321.53
2023-03-16T07:43:50.030Z,100324.41
2023-03-16T07:46:18.583Z,100324.69
2023-03-16T07:48:46.950Z,100324.31
2023-03-16T07:51:15.731Z,100329.03
2023-03-16T07:53:48.594Z,100324.25
2023-03-16T07:56:22.721Z,100317.84
2023-03-16T07:58:54.723Z,100315.31
2023-03-16T08:01:24.335Z,100313.97
2023-03-16T08:03:53.560Z,100310.81
2023-03-16T08:06:22.557Z,100306.00
2023-03-16T08:08:51.184Z,100302.69
2023-03-16T08:11:28.829Z,100309.19
2023-03-16T08:14:00.513Z,100302.44
2023-03-16T08:16:45.870Z,100299.25
2023-03-16T08:19:15.325Z,100306.41
2023-03-16T08:21:59.964Z,100307.31
2023-03-16T08:24:31.356Z,100290.22
2023-03-16T08:27:02.214Z,100297.31
2023-03-16T08:29:34.365Z,100295.78
2023-03-16T08:32:04.164Z,100292.47
2023-03-16T08:34:40.877Z,100303.22
2023-03-16T08:37:11.671Z,100302.28
2023-03-16T08:39:42.043Z,100298.13
2023-03-16T08:42:16.250Z,100302.81
2023-03-16T08:44:48.781Z,100300.44
2023-03-16T08:47:18.038Z,100304.97
2023-03-16T08:49:46.907Z,100309.66
2023-03-16T08:52:17.398Z,100298.41
2023-03-16T08:55:00.023Z,100290.63
2023-03-16T08:57:32.829Z,100281.00
2023-03-16T09:00:01.560Z,100272.38
2023-03-16T09:02:31.861Z,100274.44
2023-03-16T09:05:00.196Z,100275.66
2023-03-16T09:07:29.225Z,100268.66
2023-03-16T09:09:58.340Z,100269.91
2023-03-16T09:12:26.712Z,100270.56
2023-03-16T09:14:56.489Z,100260.75
2023-03-16T09:17:24.898Z,100267.88
2023-03-16T09:19:57.696Z,100272.19
2023-03-16T09:22:30.175Z,100265.34
2023-03-16T09:24:59.141Z,100267.00
2023-03-16T09:27:27.519Z,100278.38
2023-03-16T09:29:59.470Z,100274.34
2023-03-16T09:32:28.775Z,100274.22
2023-03-16T09:34:57.418Z,100276.06
2023-03-16T09:37:26.993Z,100267.59
2023-03-16T09:40:03.260Z,100266.00
2023-03-16T09:42:39.180Z,100264.84
2023-03-16T09:45:21.247Z,100261.63
2023-03-16T09:47:51.918Z,100261.66
2023-03-16T09:50:32.414Z,100259.91
2023-03-16T09:53:16.073Z,100254.69
2023-03-16T09:55:49.336Z,100247.63
2023-03-16T09:58:21.212Z,100255.50
2023-03-16T10:01:02.802Z,100242.59
2023-03-16T10:03:50.869Z,100256.16
2023-03-16T10:06:20.765Z,100237.94
2023-03-16T10:08:57.274Z,100233.09
2023-03-16T10:11:32.954Z,100240.38
2023-03-16T10:14:07.418Z,100244.06
2023-03-16T10:16:42.300Z,100238.59
2023-03-16T10:19:19.518Z,100226.47
2023-03-16T10:21:50.254Z,100227.06
2023-03-16T10:24:35.746Z,100222.03
2023-03-16T10:27:06.075Z,100220.19
2023-03-16T10:29:38.689Z,100227.28
2023-03-16T10:32:16.722Z,100226.50
2023-03-16T10:34:49.585Z,100216.94
2023-03-16T10:37:17.948Z,100217.97
2023-03-16T10:39:46.892Z,100220.63
2023-03-16T10:42:18.225Z,100225.25
2023-03-16T10:44:46.794Z,100230.72
2023-03-16T10:47:25.061Z,100230.94
2023-03-16T10:49:53.414Z,100227.69
2023-03-16T10:52:31.260Z,100212.25
2023-03-16T10:55:02.709Z,100216.72
2023-03-16T10:57:34.665Z,100215.06
2023-03-16T11:00:20.989Z,100207.78
2023-03-16T11:02:53.703Z,100203.13
2023-03-16T11:05:31.046Z,100205.97
2023-03-16T11:08:03.463Z,100199.66
2023-03-16T11:10:40.553Z,100186.63
2023-03-16T11:13:17.650Z,100198.78
2023-03-16T11:15:52.034Z,100197.13
2023-03-16T11:18:33.588Z,100193.06
2023-03-16T11:21:10.132Z,100198.31
2023-03-16T11:23:48.432Z,100188.16
2023-03-16T11:26:24.075Z,100190.75
2023-03-16T11:29:02.281Z,100188.06
2023-03-16T11:31:42.891Z,100181.16
2023-03-16T11:34:19.292Z,100178.66
2023-03-16T11:36:55.029Z,100170.72
2023-03-16T11:39:33.492Z,100164.59
2023-03-16T11:42:20.929Z,100161.09
2023-03-16T11:44:59.385Z,100165.31
2023-03-16T11:48:24.019Z,100164.44
2023-03-16T11:51:06.298Z,100158.91
2023-03-16T11:53:51.260Z,100170.44
2023-03-16T11:56:30.159Z,100160.88
2023-03-16T11:59:17.956Z,100157.56
2023-03-16T12:02:21.774Z,100153.28
2023-03-16T12:05:22.358Z,100136.56
2023-03-16T12:08:04.404Z,100141.59
2023-03-16T12:10:36.315Z,100138.28
2023-03-16T12:13:21.749Z,100135.59
2023-03-16T12:15:54.453Z,100134.91
2023-03-16T12:18:31.415Z,100135.06
2023-03-16T12:21:04.264Z,100118.09
2023-03-16T12:23:37.925Z,100106.09
2023-03-16T12:26:45.006Z,100108.72
2023-03-16T12:30:03.979Z,100102.97
2023-03-16T12:32:45.296Z,100107.38
2023-03-16T12:35:34.015Z,100099.59
2023-03-16T12:38:44.076Z,100101.59
2023-03-16T12:41:26.813Z,100098.28
2023-03-16T12:44:13.694Z,100094.31
2023-03-16T12:47:02.387Z,100086.75
2023-03-16T12:49:36.089Z,100091.91
2023-03-16T12:52:11.105Z,100080.88
2023-03-16T12:55:15.499Z,100075.75
2023-03-16T12:57:45.425Z,100086.59
2023-03-16T13:00:16.922Z,100078.19
2023-03-16T13:02:57.278Z,100079.34
2023-03-16T13:05:32.460Z,100077.88
2023-03-16T13:08:13.749Z,100064.44
2023-03-16T13:10:44.955Z,100058.44
2023-03-16T13:13:25.689Z,100058.03
2023-03-16T13:16:07.070Z,100053.34
2023-03-16T13:18:41.897Z,100040.09
2023-03-16T13:21:23.051Z,100033.50
2023-03-16T13:24:00.368Z,100033.31
2023-03-16T13:26:42.095Z,100030.78
2023-03-16T13:29:27.225Z,100034.22
2023-03-16T13:32:04.448Z,100025.63
2023-03-16T13:34:37.310Z,100033.66
2023-03-16T13:37:05.889Z,100035.63
2023-03-16T13:39:35.551Z,100043.94
2023-03-16T13:42:16.929Z,100033.56
2023-03-16T13:44:45.817Z,100036.31
2023-03-16T13:47:17.151Z,100028.16
2023-03-16T13:49:50.879Z,100019.19
2023-03-16T13:52:27.024Z,100015.28
2023-03-16T13:54:58.893Z,100008.47
2023-03-16T13:57:32.021Z,100003.97
2023-03-16T14:00:17.169Z,99996.03
2023-03-16T14:02:48.831Z,99995.78
2023-03-16T14:05:23.118Z,99985.19
2023-03-16T14:07:53.116Z,99983.59
2023-03-16T14:10:27.171Z,99984.38
2023-03-16T14:12:59.813Z,99981.75
2023-03-16T14:15:31.063Z,99986.00
2023-03-16T14:18:14.839Z,99987.63
2023-03-16T14:20:43.745Z,99983.94
2023-03-16T14:23:25.253Z,99978.63
2023-03-16T14:25:54.913Z,99985.31
2023-03-16T14:28:33.484Z,99976.66
2023-03-16T14:31:07.509Z,99974.81
2023-03-16T14:33:40.121Z,99981.25
2023-03-16T14:36:14.331Z,99969.63
2023-03-16T14:38:44.144Z,99966.75
2023-03-16T14:41:24.204Z,99960.19
2023-03-16T14:44:03.143Z,99966.84
2023-03-16T14:46:33.977Z,99972.75
2023-03-16T14:49:05.338Z,99968.56
2023-03-16T14:51:35.076Z,99954.28
2023-03-16T14:54:03.831Z,99947.81
2023-03-16T14:56:36.702Z,99947.34
2023-03-16T14:59:06.752Z,99937.06
2023-03-16T15:01:35.270Z,99936.03
2023-03-16T15:04:04.551Z,99938.22
2023-03-16T15:06:34.346Z,99940.19
2023-03-16T15:09:03.028Z,99949.50
2023-03-16T15:11:31.867Z,99943.97
2023-03-16T15:14:14.685Z,99942.13
2023-03-16T15:16:44.579Z,99947.44
2023-03-16T15:19:12.973Z,99945.31
2023-03-16T15:21:41.551Z,99939.81
2023-03-16T15:24:12.789Z,99939.56
2023-03-16T15:26:41.233Z,99940.13
2023-03-16T15:29:13.083Z,99937.25
2023-03-16T15:31:41.492Z,99939.69
2023-03-16T15:34:11.368Z,99927.69
2023-03-16T15:36:39.884Z,99919.47
2023-03-16T15:39:09.015Z,99920.53
2023-03-16T15:41:47.031Z,99919.47
2023-03-16T15:44:16.362Z,99923.75
2023-03-16T15:46:44.895Z,99937.03
2023-03-16T15:49:15.461Z,99920.06
2023-03-16T15:51:43.875Z,99916.81
2023-03-16T15:54:13.398Z,99916.59
2023-03-16T15:56:53.916Z,99915.81
2023-03-16T15:59:24.759Z,99905.66
2023-03-16T16:01:53.663Z,99903.22
2023-03-16T16:04:25.724Z,99891.81
2023-03-16T16:06:55.504Z,99893.13
2023-03-16T16:09:24.384Z,99896.78
2023-03-16T16:11:52.974Z,99888.03
2023-03-16T16:14:25.960Z,99885.63
2023-03-16T16:16:55.356Z,99886.19
2023-03-16T16:19:25.522Z,99874.22
2023-03-16T16:21:53.956Z,99872.38
2023-03-16T16:24:22.575Z,99879.75
2023-03-16T16:26:54.912Z,99873.91
2023-03-16T16:29:26.749Z,99870.91
2023-03-16T16:31:55.617Z,99876.22
2023-03-16T16:34:27.116Z,99885.19
2023-03-16T16:36:56.422Z,99890.94
2023-03-16T16:39:25.624Z,99881.88
2023-03-16T16:41:57.108Z,99890.94
2023-03-16T16:44:33.884Z,99894.66
2023-03-16T16:47:03.850Z,99888.56
2023-03-16T16:49:35.267Z,99884.50
2023-03-16T16:52:03.752Z,99870.72
2023-03-16T16:54:33.279Z,99883.63
2023-03-16T16:57:03.022Z,99876.94
2023-03-16T16:59:34.893Z,99868.91
2023-03-16T17:02:19.427Z,99870.97
2023-03-16T17:04:50.681Z,99871.44
2023-03-16T17:07:19.188Z,99875.38
2023-03-16T17:09:47.653Z,99877.69
2023-03-16T17:12:21.369Z,99881.38
2023-03-16T17:14:49.761Z,99892.22
2023-03-16T17:17:19.477Z,99887.13
2023-03-16T17:19:49.496Z,99884.72
2023-03-16T17:22:24.478Z,99888.09
2023-03-16T17:24:53.236Z,99879.34
2023-03-16T17:27:26.784Z,99876.91
2023-03-16T17:29:56.091Z,99882.44
2023-03-16T17:32:24.706Z,99876.34
2023-03-16T17:34:54.575Z,99866.41
2023-03-16T17:37:23.866Z,99878.88
2023-03-16T17:39:52.433Z,99863.09
2023-03-16T17:42:23.067Z,99870.81
2023-03-16T17:44:53.284Z,99867.03
2023-03-16T17:47:25.025Z,99860.09
2023-03-16T17:49:56.991Z,99854.25
2023-03-16T17:52:27.808Z,99860.00
2023-03-16T17:54:56.714Z,99857.81
2023-03-16T17:57:29.854Z,99867.28
2023-03-16T17:59:58.760Z,99852.63
2023-03-16T18:02:41.566Z,99856.56
2023-03-16T18:05:20.194Z,99857.03
2023-03-16T18:07:48.726Z,99853.00
2023-03-16T18:10:19.100Z,99841.03
2023-03-16T18:12:49.885Z,99840.94
2023-03-16T18:15:19.774Z,99847.03
2023-03-16T18:17:49.635Z,99842.94
2023-03-16T18:20:30.874Z,99844.69
2023-03-16T18:23:01.803Z,99843.56
2023-03-16T18:25:38.961Z,99849.53
2023-03-16T18:28:09.834Z,99842.06
2023-03-16T18:30:40.148Z,99841.72
2023-03-16T18:33:17.408Z,99837.09
2023-03-16T18:35:47.502Z,99838.59
2023-03-16T18:38:24.042Z,99840.66
2023-03-16T18:40:52.378Z,99829.75
2023-03-16T18:43:20.763Z,99834.44
2023-03-16T18:45:50.029Z,99810.53
2023-03-16T18:48:26.333Z,99819.25
2023-03-16T18:50:56.526Z,99823.41
2023-03-16T18:53:24.978Z,99819.81
2023-03-16T18:55:55.089Z,99823.75
2023-03-16T18:58:25.575Z,99824.19
2023-03-16T19:00:57.582Z,99833.63
2023-03-16T19:03:28.607Z,99821.88
2023-03-16T19:06:00.489Z,99817.41
2023-03-16T19:08:34.322Z,99821.31
2023-03-16T19:11:04.038Z,99827.03
2023-03-16T19:13:32.428Z,99826.44
2023-03-16T19:16:03.285Z,99817.59
2023-03-16T19:18:31.658Z,99823.78
2023-03-16T19:21:01.465Z,99808.72
2023-03-16T19:23:34.244Z,99812.75
2023-03-16T19:26:03.188Z,99826.19
2023-03-16T19:28:36.631Z,99818.72
2023-03-16T19:31:11.926Z,99823.41
2023-03-16T19:33:40.304Z,99829.16
2023-03-16T19:36:17.361Z,99823.06
2023-03-16T19:38:50.385Z,99813.53
2023-03-16T19:41:30.122Z,99818.47
2023-03-16T19:44:03.652Z,99821.78
2023-03-16T19:46:32.366Z,99806.94
2023-03-16T19:49:01.139Z,99812.66
2023-03-16T19:51:32.346Z,99805.22
2023-03-16T19:54:01.473Z,99794.41
2023-03-16T19:56:30.021Z,99796.69
2023-03-16T19:58:59.177Z,99796.09
2023-03-16T20:01:32.763Z,99800.56
2023-03-16T20:04:04.305Z,99797.72
2023-03-16T20:06:36.812Z,99800.94
2023-03-16T20:09:05.444Z,99793.00
2023-03-16T20:11:34.300Z,99807.38
2023-03-16T20:14:03.592Z,99801.09
2023-03-16T20:16:37.788Z,99804.53
2023-03-16T20:19:14.097Z,99797.63
2023-03-16T20:21:44.328Z,99799.59
2023-03-16T20:24:16.690Z,99791.44
2023-03-16T20:26:46.735Z,99783.28
2023-03-16T20:29:23.411Z,99771.69
2023-03-16T20:31:51.772Z,99769.28
2023-03-16T20:34:26.002Z,99764.00
2023-03-16T20:36:56.111Z,99765.81
2023-03-16T20:39:24.414Z,99780.84
2023-03-16T20:41:53.247Z,99775.56
2023-03-16T20:44:23.696Z,99779.50
2023-03-16T20:46:52.345Z,99769.94
2023-03-16T20:49:33.058Z,99778.91
2023-03-16T20:52:03.963Z,99787.06
2023-03-16T20:54:35.978Z,99784.44
2023-03-16T20:57:04.557Z,99778.91
2023-03-16T20:59:33.809Z,99768.34
2023-03-16T21:02:02.763Z,99767.53
2023-03-16T21:04:31.613Z,99755.56
2023-03-16T21:07:00.144Z,99751.53
2023-03-16T21:09:31.920Z,99752.56
2023-03-16T21:12:00.646Z,99771.72
2023-03-16T21:14:29.010Z,99759.53
2023-03-16T21:16:57.952Z,99757.56
2023-03-16T21:19:26.550Z,99757.78
2023-03-16T21:21:58.219Z,99759.19
2023-03-16T21:24:27.205Z,99763.63
2023-03-16T21:26:57.088Z,99755.94
2023-03-16T21:29:25.850Z,99763.28
2023-03-16T21:31:54.279Z,99752.72
2023-03-16T21:34:27.654Z,99749.28
2023-03-16T21:36:56.585Z,99751.91
2023-03-16T21:39:25.424Z,99747.66
2023-03-16T21:41:54.085Z,99754.91
2023-03-16T21:44:23.884Z,99753.91
2023-03-16T21:46:52.540Z,99746.19
2023-03-16T21:49:21.017Z,99749.63
2023-03-16T21:51:50.794Z,99749.88
2023-03-16T21:54:20.287Z,99743.53
2023-03-16T21:56:50.359Z,99725.84
2023-03-16T21:59:18.847Z,99747.78
2023-03-16T22:02:01.229Z,99733.78
2023-03-16T22:04:30.720Z,99751.25
2023-03-16T22:06:59.039Z,99754.72
2023-03-16T22:09:30.206Z,99751.03
2023-03-16T22:11:58.818Z,99731.50
2023-03-16T22:14:27.275Z,99743.69
2023-03-16T22:16:57.483Z,99737.56
2023-03-16T22:19:27.094Z,99734.13
2023-03-16T22:21:57.354Z,99732.53
2023-03-16T22:24:28.544Z,99724.59
2023-03-16T22:26:57.987Z,99728.63
2023-03-16T22:29:28.604Z,99721.50
2023-03-16T22:32:01.426Z,99713.59
2023-03-16T22:34:34.867Z,99718.88
2023-03-16T22:37:03.554Z,99702.66
2023-03-16T22:39:37.748Z,99703.91
2023-03-16T22:42:28.478Z,99709.19
2023-03-16T22:44:57.322Z,99701.50
2023-03-16T22:47:32.253Z,99700.56
2023-03-16T22:50:01.218Z,99703.81
2023-03-16T22:52:33.666Z,99705.84
2023-03-16T22:55:04.501Z,99709.53
2023-03-16T22:57:33.498Z,99701.00
2023-03-16T23:00:11.292Z,99702.06
2023-03-16T23:02:41.951Z,99703.09
2023-03-16T23:05:20.762Z,99692.97
2023-03-16T23:07:49.669Z,99694.56
2023-03-16T23:10:20.149Z,99687.69
2023-03-16T23:12:49.364Z,99681.59
2023-03-16T23:15:21.055Z,99684.47
2023-03-16T23:17:51.087Z,99671.72
2023-03-16T23:20:31.777Z,99669.66
2023-03-16T23:23:00.464Z,99664.81
2023-03-16T23:25:28.920Z,99661.38
2023-03-16T23:27:58.647Z,99673.19
2023-03-16T23:30:27.538Z,99674.66
2023-03-16T23:32:57.601Z,99669.38
2023-03-16T23:35:29.141Z,99679.75
2023-03-16T23:37:58.034Z,99675.47
2023-03-16T23:40:29.372Z,99669.84
2023-03-16T23:42:59.556Z,99663.41
2023-03-16T23:45:33.913Z,99658.72
2023-03-16T23:48:07.296Z,99658.56
2023-03-16T23:50:37.766Z,99659.94
2023-03-16T23:53:12.334Z,99658.56
2023-03-16T23:55:42.018Z,99655.13
2023-03-16T23:58:10.613Z,99648.13
